Time;durP1;ratioP1;P1;durP2;ratioP2;P2;SDS_P1;SDS_P2;PMS_P1;PMS_P2;Temp;Humidity;BMP_temperature;BMP_pressure;BME280_temperature;BME280_humidity;BME280_pressure;Samples;Min_cycle;Max_cycle;Signal;HPM_P1;HPM_P2
2022/04/15 00:02:25;;;;;;;11.88;6.32;;;;;;;;;;4989979;28;20084;-74
2022/04/15 00:04:50;;;;;;;11.32;6.63;;;;;;;;;;4990024;28;20113;-74
2022/04/15 00:07:17;;;;;;;11.38;7.10;;;;;;;;;;4972418;28;20046;-73
2022/04/15 00:09:43;;;;;;;21.33;6.88;;;;;;;;;;4989903;28;20042;-72
2022/04/15 00:12:17;;;;;;;14.30;7.22;;;;;;;;;;4988497;28;20042;-74
2022/04/15 00:14:43;;;;;;;12.00;6.50;;;;;;;;;;4988320;28;20133;-73
2022/04/15 00:17:09;;;;;;;19.52;7.15;;;;;;;;;;4990137;28;20050;-74
2022/04/15 00:19:36;;;;;;;14.82;6.95;;;;;;;;;;4973190;28;20065;-73
2022/04/15 00:22:02;;;;;;;16.02;7.05;;;;;;;;;;4989668;28;20529;-73
2022/04/15 00:24:27;;;;;;;14.20;7.15;;;;;;;;;;4989970;28;20046;-74
2022/04/15 00:26:53;;;;;;;20.83;6.70;;;;;;;;;;4990024;28;20042;-74
2022/04/15 00:29:19;;;;;;;11.52;7.90;;;;;;;;;;5004380;28;20074;-73
2022/04/15 00:31:45;;;;;;;22.80;8.18;;;;;;;;;;4993500;28;20038;-73
2022/04/15 00:34:11;;;;;;;17.27;8.10;;;;;;;;;;4994678;28;20046;-73
2022/04/15 00:36:37;;;;;;;18.90;7.20;;;;;;;;;;5007214;28;20584;-73
2022/04/15 00:39:03;;;;;;;18.55;6.50;;;;;;;;;;5013121;28;20046;-72
2022/04/15 00:41:29;;;;;;;9.13;6.28;;;;;;;;;;5013348;28;20092;-73
2022/04/15 00:43:55;;;;;;;7.68;6.32;;;;;;;;;;5012946;28;20080;-73
2022/04/15 00:46:21;;;;;;;19.38;6.70;;;;;;;;;;5013267;28;20052;-73
2022/04/15 00:48:47;;;;;;;16.60;6.43;;;;;;;;;;5012725;28;20037;-72
2022/04/15 00:51:13;;;;;;;9.85;6.30;;;;;;;;;;5012987;28;20050;-74
2022/04/15 00:53:40;;;;;;;13.85;6.70;;;;;;;;;;5013563;28;20631;-72
2022/04/15 00:56:06;;;;;;;16.63;7.38;;;;;;;;;;4999366;28;20093;-75
2022/04/15 00:58:33;;;;;;;14.10;7.05;;;;;;;;;;4992973;28;20046;-73
2022/04/15 01:00:59;;;;;;;11.77;6.72;;;;;;;;;;4993605;28;20046;-73
2022/04/15 01:03:25;;;;;;;18.98;9.48;;;;;;;;;;5012757;28;20080;-73
2022/04/15 01:05:52;;;;;;;13.07;8.60;;;;;;;;;;5013903;28;20041;-74
2022/04/15 01:08:21;;;;;;;16.95;7.70;;;;;;;;;;5016028;28;20034;-72
2022/04/15 01:10:47;;;;;;;17.67;7.97;;;;;;;;;;5019368;28;20037;-74
2022/04/15 01:13:13;;;;;;;23.60;8.00;;;;;;;;;;5005521;28;20124;-74
2022/04/15 01:15:39;;;;;;;11.98;8.57;;;;;;;;;;5023110;28;20042;-74
2022/04/15 01:18:05;;;;;;;24.42;7.88;;;;;;;;;;5003651;28;20072;-74
2022/04/15 01:20:30;;;;;;;14.30;6.03;;;;;;;;;;5013665;28;20532;-74
2022/04/15 01:23:06;;;;;;;13.90;6.40;;;;;;;;;;4995054;28;20069;-73
2022/04/15 01:25:32;;;;;;;6.63;5.75;;;;;;;;;;5012293;28;20038;-72
2022/04/15 01:27:59;;;;;;;9.77;5.35;;;;;;;;;;4994487;28;20037;-73
2022/04/15 01:30:25;;;;;;;9.00;6.18;;;;;;;;;;5011935;28;20038;-73
2022/04/15 01:32:50;;;;;;;9.85;5.95;;;;;;;;;;5012200;28;20545;-73
2022/04/15 01:35:17;;;;;;;16.40;5.97;;;;;;;;;;4993707;28;20176;-73
2022/04/15 01:37:43;;;;;;;11.55;5.82;;;;;;;;;;5012311;28;20128;-72
2022/04/15 01:40:09;;;;;;;14.35;7.28;;;;;;;;;;5011606;28;20176;-73
2022/04/15 01:42:35;;;;;;;15.13;6.47;;;;;;;;;;4994572;28;20053;-74
2022/04/15 01:45:01;;;;;;;11.60;6.40;;;;;;;;;;5011674;28;20046;-73
2022/04/15 01:47:28;;;;;;;14.77;5.75;;;;;;;;;;5011093;28;20046;-73
2022/04/15 01:49:54;;;;;;;10.98;6.50;;;;;;;;;;4994430;28;20046;-73
2022/04/15 01:52:20;;;;;;;10.23;6.45;;;;;;;;;;5011724;28;20410;-73
2022/04/15 01:54:46;;;;;;;21.05;6.45;;;;;;;;;;5011881;28;20418;-75
2022/04/15 01:57:12;;;;;;;12.55;6.00;;;;;;;;;;5011470;28;20054;-74
2022/04/15 01:59:38;;;;;;;19.55;6.32;;;;;;;;;;5011634;28;20362;-73
2022/04/15 02:02:04;;;;;;;12.45;6.63;;;;;;;;;;5012439;28;20045;-74
2022/04/15 02:04:30;;;;;;;16.02;5.95;;;;;;;;;;4994512;28;20037;-74
2022/04/15 02:06:56;;;;;;;17.85;6.38;;;;;;;;;;5011739;28;20108;-74
2022/04/15 02:09:22;;;;;;;9.57;6.10;;;;;;;;;;5011039;28;20120;-76
2022/04/15 02:11:48;;;;;;;15.32;6.75;;;;;;;;;;4994031;28;20044;-73
2022/04/15 02:14:14;;;;;;;14.23;6.05;;;;;;;;;;4961543;28;20517;-73
2022/04/15 02:16:40;;;;;;;24.83;6.38;;;;;;;;;;5011561;28;20084;-73
2022/04/15 02:19:05;;;;;;;11.77;6.13;;;;;;;;;;5021984;28;20128;-72
2022/04/15 02:21:31;;;;;;;21.85;6.78;;;;;;;;;;5022300;28;20052;-72
2022/04/15 02:23:57;;;;;;;13.77;7.00;;;;;;;;;;5005841;28;20498;-72
2022/04/15 02:26:23;;;;;;;18.42;7.15;;;;;;;;;;5026058;28;20557;-73
2022/04/15 02:28:49;;;;;;;13.98;8.05;;;;;;;;;;4993754;28;20564;-73
2022/04/15 02:31:15;;;;;;;14.90;7.13;;;;;;;;;;5011347;28;20053;-73
2022/04/15 02:33:41;;;;;;;18.60;7.18;;;;;;;;;;5011229;28;20046;-73
2022/04/15 02:36:07;;;;;;;23.00;7.72;;;;;;;;;;4993315;28;20062;-73
2022/04/15 02:38:33;;;;;;;18.05;7.22;;;;;;;;;;5011473;28;20045;-73
2022/04/15 02:40:59;;;;;;;22.13;6.72;;;;;;;;;;5009572;28;20509;-73
2022/04/15 02:43:31;;;;;;;14.73;6.97;;;;;;;;;;5010695;28;20537;-73
2022/04/15 02:46:00;;;;;;;12.85;7.15;;;;;;;;;;5010585;28;20130;-74
2022/04/15 02:48:27;;;;;;;25.90;7.88;;;;;;;;;;4992738;28;20464;-74
2022/04/15 02:50:53;;;;;;;18.55;8.25;;;;;;;;;;4993396;28;20046;-72
2022/04/15 02:53:19;;;;;;;18.90;7.15;;;;;;;;;;5010491;28;20477;-72
2022/04/15 02:55:45;;;;;;;20.38;7.72;;;;;;;;;;5010542;28;20056;-71
2022/04/15 02:58:11;;;;;;;15.45;8.13;;;;;;;;;;5010220;28;20046;-72
2022/04/15 03:00:37;;;;;;;17.85;7.80;;;;;;;;;;5008434;28;20038;-73
2022/04/15 03:03:03;;;;;;;14.15;7.60;;;;;;;;;;5013351;28;20041;-72
2022/04/15 03:05:30;;;;;;;17.02;7.57;;;;;;;;;;5029933;28;20425;-70
2022/04/15 03:07:56;;;;;;;15.13;7.47;;;;;;;;;;5030134;28;20041;-72
2022/04/15 03:10:22;;;;;;;17.00;8.02;;;;;;;;;;4996028;28;20041;-72
2022/04/15 03:12:48;;;;;;;24.17;7.68;;;;;;;;;;5030604;28;20590;-74
2022/04/15 03:15:14;;;;;;;19.88;7.03;;;;;;;;;;5026452;28;20050;-72
2022/04/15 03:17:39;;;;;;;16.00;8.10;;;;;;;;;;5010116;28;20060;-71
2022/04/15 03:20:06;;;;;;;21.25;7.28;;;;;;;;;;5012958;28;20033;-72
2022/04/15 03:22:38;;;;;;;19.13;8.00;;;;;;;;;;4995651;28;20044;-72
2022/04/15 03:25:05;;;;;;;10.38;6.30;;;;;;;;;;5029517;28;20052;-72
2022/04/15 03:27:31;;;;;;;19.30;6.70;;;;;;;;;;5029596;28;20050;-72
2022/04/15 03:29:56;;;;;;;20.77;7.68;;;;;;;;;;5006201;28;20041;-72
2022/04/15 03:32:22;;;;;;;16.60;6.30;;;;;;;;;;5003794;28;20053;-72
2022/04/15 03:34:48;;;;;;;18.17;6.90;;;;;;;;;;4997533;28;20133;-72
2022/04/15 03:37:14;;;;;;;7.63;6.30;;;;;;;;;;4979211;28;20062;-73
2022/04/15 03:39:40;;;;;;;13.05;6.78;;;;;;;;;;4999791;28;20053;-74
2022/04/15 03:42:07;;;;;;;13.88;7.30;;;;;;;;;;4999112;28;20047;-72
2022/04/15 03:44:33;;;;;;;16.85;6.90;;;;;;;;;;4975490;28;20120;-72
2022/04/15 03:46:59;;;;;;;17.17;6.90;;;;;;;;;;5001547;28;20584;-73
2022/04/15 03:49:25;;;;;;;22.08;7.75;;;;;;;;;;4973311;28;20046;-72
2022/04/15 03:51:51;;;;;;;21.27;7.00;;;;;;;;;;4994146;28;20128;-73
2022/04/15 03:54:16;;;;;;;18.30;7.18;;;;;;;;;;5003838;28;20144;-73
2022/04/15 03:56:42;;;;;;;17.98;7.97;;;;;;;;;;5022055;28;20544;-72
2022/04/15 03:59:08;;;;;;;14.75;8.25;;;;;;;;;;5009054;28;20045;-72
2022/04/15 04:01:34;;;;;;;24.73;10.40;;;;;;;;;;5009750;28;20046;-72
2022/04/15 04:04:00;;;;;;;16.88;10.00;;;;;;;;;;4992603;28;20505;-72
2022/04/15 04:06:26;;;;;;;18.40;7.93;;;;;;;;;;4992252;28;20653;-73
2022/04/15 04:08:52;;;;;;;15.00;8.50;;;;;;;;;;5009955;28;20421;-73
2022/04/15 04:11:18;;;;;;;26.45;8.75;;;;;;;;;;4994499;28;20429;-72
2022/04/15 04:13:44;;;;;;;19.10;8.77;;;;;;;;;;5013563;28;20045;-71
2022/04/15 04:16:11;;;;;;;24.48;9.10;;;;;;;;;;5013179;28;20054;-75
2022/04/15 04:18:38;;;;;;;20.30;9.30;;;;;;;;;;5013552;28;20030;-72
2022/04/15 04:21:04;;;;;;;25.60;8.25;;;;;;;;;;5012483;28;20050;-72
2022/04/15 04:23:30;;;;;;;12.13;7.70;;;;;;;;;;4997350;28;20366;-72
2022/04/15 04:25:56;;;;;;;19.20;8.73;;;;;;;;;;5011746;28;20099;-73
2022/04/15 04:28:22;;;;;;;13.02;7.47;;;;;;;;;;5010924;28;20042;-73
2022/04/15 04:30:47;;;;;;;13.10;7.55;;;;;;;;;;5011812;28;20510;-72
2022/04/15 04:33:13;;;;;;;21.33;8.23;;;;;;;;;;4993662;28;20353;-72
2022/04/15 04:35:39;;;;;;;21.05;7.60;;;;;;;;;;4992613;28;20053;-72
2022/04/15 04:38:05;;;;;;;15.38;7.75;;;;;;;;;;5009512;28;20449;-71
2022/04/15 04:40:32;;;;;;;19.35;7.60;;;;;;;;;;5012889;28;20054;-72
2022/04/15 04:42:57;;;;;;;27.67;7.90;;;;;;;;;;5037874;28;20046;-74
2022/04/15 04:45:23;;;;;;;19.52;8.15;;;;;;;;;;4999991;28;20033;-73
2022/04/15 04:47:49;;;;;;;22.77;7.90;;;;;;;;;;5037946;28;20517;-73
2022/04/15 04:50:15;;;;;;;21.13;8.77;;;;;;;;;;5022680;28;20145;-72
2022/04/15 04:52:41;;;;;;;20.17;8.13;;;;;;;;;;5021629;28;20125;-73
2022/04/15 04:55:08;;;;;;;15.65;7.95;;;;;;;;;;5019065;28;20104;-73
2022/04/15 04:57:34;;;;;;;13.73;6.95;;;;;;;;;;5022836;28;20064;-73
2022/04/15 05:00:00;;;;;;;22.92;7.43;;;;;;;;;;5025377;28;20103;-73
2022/04/15 05:02:25;;;;;;;13.70;7.78;;;;;;;;;;5007723;28;20034;-74
2022/04/15 05:04:51;;;;;;;20.75;7.57;;;;;;;;;;5018469;28;20128;-74
2022/04/15 05:07:17;;;;;;;25.40;7.57;;;;;;;;;;4993182;28;20498;-74
2022/04/15 05:09:43;;;;;;;27.30;7.75;;;;;;;;;;5011830;28;20057;-74
2022/04/15 05:12:10;;;;;;;23.00;7.63;;;;;;;;;;4994981;28;20037;-74
2022/04/15 05:14:35;;;;;;;30.67;8.43;;;;;;;;;;5011219;28;20141;-75
2022/04/15 05:17:01;;;;;;;32.70;7.45;;;;;;;;;;4990478;28;20536;-72
2022/04/15 05:19:27;;;;;;;31.77;7.63;;;;;;;;;;5012005;28;20367;-73
2022/04/15 05:21:53;;;;;;;23.42;6.68;;;;;;;;;;5008659;28;20332;-73
2022/04/15 05:24:19;;;;;;;22.40;7.28;;;;;;;;;;5009718;28;20129;-73
2022/04/15 05:26:45;;;;;;;25.45;7.53;;;;;;;;;;5024865;28;20034;-73
2022/04/15 05:29:11;;;;;;;34.17;9.15;;;;;;;;;;5008831;28;20037;-73
2022/04/15 05:31:36;;;;;;;20.88;7.35;;;;;;;;;;4993384;28;20053;-73
2022/04/15 05:34:03;;;;;;;12.82;6.25;;;;;;;;;;5011294;28;20049;-73
2022/04/15 05:36:29;;;;;;;25.98;6.25;;;;;;;;;;5010889;28;20053;-75
2022/04/15 05:38:55;;;;;;;18.27;6.75;;;;;;;;;;5011447;28;20042;-75
2022/04/15 05:41:21;;;;;;;21.52;6.60;;;;;;;;;;5010733;28;20046;-72
2022/04/15 05:43:47;;;;;;;18.77;6.25;;;;;;;;;;5010039;28;20085;-73
2022/04/15 05:46:13;;;;;;;13.60;5.82;;;;;;;;;;4992770;28;20045;-73
2022/04/15 05:48:39;;;;;;;15.75;5.90;;;;;;;;;;5011253;28;20049;-73
2022/04/15 05:51:05;;;;;;;23.23;5.60;;;;;;;;;;5010374;28;20052;-74
2022/04/15 05:53:31;;;;;;;16.08;6.50;;;;;;;;;;5009162;28;20616;-73
2022/04/15 05:55:57;;;;;;;19.63;6.53;;;;;;;;;;5010454;28;20053;-72
2022/04/15 05:58:26;;;;;;;23.77;6.68;;;;;;;;;;5008017;28;20116;-73
2022/04/15 06:00:52;;;;;;;12.68;6.43;;;;;;;;;;5008300;28;20063;-72
2022/04/15 06:03:20;;;;;;;23.25;6.28;;;;;;;;;;5008755;28;20587;-73
2022/04/15 06:05:47;;;;;;;16.15;5.95;;;;;;;;;;5008590;28;20034;-74
2022/04/15 06:08:13;;;;;;;17.85;6.30;;;;;;;;;;5009348;28;20081;-74
2022/04/15 06:10:39;;;;;;;19.08;6.32;;;;;;;;;;5010328;28;20548;-74
2022/04/15 06:13:08;;;;;;;19.77;6.30;;;;;;;;;;5009810;28;20046;-73
2022/04/15 06:15:36;;;;;;;14.50;6.23;;;;;;;;;;5007011;28;20115;-72
2022/04/15 06:18:02;;;;;;;19.95;5.55;;;;;;;;;;4990580;28;20516;-73
2022/04/15 06:20:28;;;;;;;18.33;4.88;;;;;;;;;;4990952;28;20056;-73
2022/04/15 06:22:54;;;;;;;14.15;5.70;;;;;;;;;;5008782;28;20386;-73
2022/04/15 06:25:19;;;;;;;16.15;6.25;;;;;;;;;;4991113;28;20505;-73
2022/04/15 06:27:46;;;;;;;11.98;5.53;;;;;;;;;;5010272;28;20046;-73
2022/04/15 06:30:12;;;;;;;11.68;5.30;;;;;;;;;;4992231;28;20481;-73
2022/04/15 06:32:38;;;;;;;17.50;5.80;;;;;;;;;;4991885;28;20069;-73
2022/04/15 06:35:04;;;;;;;9.13;5.78;;;;;;;;;;5025304;28;20053;-72
2022/04/15 06:37:30;;;;;;;12.70;5.65;;;;;;;;;;5003745;28;20319;-74
2022/04/15 06:39:56;;;;;;;20.73;6.05;;;;;;;;;;4988223;28;20038;-74
2022/04/15 06:42:25;;;;;;;10.05;5.43;;;;;;;;;;5018350;28;20091;-74
2022/04/15 06:44:51;;;;;;;17.88;5.50;;;;;;;;;;5004863;28;20421;-73
2022/04/15 06:47:17;;;;;;;12.60;5.10;;;;;;;;;;5009629;28;20049;-73
2022/04/15 06:49:43;;;;;;;16.40;5.63;;;;;;;;;;5010055;28;20200;-75
2022/04/15 06:52:09;;;;;;;8.70;5.22;;;;;;;;;;4991070;28;20568;-74
2022/04/15 06:54:35;;;;;;;20.10;5.55;;;;;;;;;;5025446;28;20132;-76
2022/04/15 06:57:04;;;;;;;12.30;4.50;;;;;;;;;;5029863;28;20116;-74
2022/04/15 06:59:30;;;;;;;13.73;4.93;;;;;;;;;;5029402;28;20124;-73
2022/04/15 07:01:56;;;;;;;16.73;5.47;;;;;;;;;;5002813;28;20069;-74
2022/04/15 07:04:23;;;;;;;9.80;5.32;;;;;;;;;;5009570;28;20073;-73
2022/04/15 07:06:49;;;;;;;7.88;5.20;;;;;;;;;;5009835;28;20132;-73
2022/04/15 07:09:15;;;;;;;14.75;5.20;;;;;;;;;;5009689;28;20132;-73
2022/04/15 07:11:41;;;;;;;13.60;5.10;;;;;;;;;;5009486;28;20070;-73
2022/04/15 07:14:07;;;;;;;13.57;5.72;;;;;;;;;;5009266;28;20045;-73
2022/04/15 07:16:36;;;;;;;10.45;5.95;;;;;;;;;;5008851;28;20054;-73
2022/04/15 07:19:04;;;;;;;12.80;5.60;;;;;;;;;;5009609;28;20087;-73
2022/04/15 07:21:30;;;;;;;15.82;5.63;;;;;;;;;;4990457;28;20037;-73
2022/04/15 07:23:57;;;;;;;11.48;5.70;;;;;;;;;;4991449;28;20042;-72
2022/04/15 07:26:22;;;;;;;12.40;5.47;;;;;;;;;;4991144;28;20537;-72
2022/04/15 07:28:48;;;;;;;17.38;4.95;;;;;;;;;;5007892;28;20034;-70
2022/04/15 07:31:14;;;;;;;11.43;5.13;;;;;;;;;;5005828;28;20045;-73
2022/04/15 07:33:40;;;;;;;11.88;4.75;;;;;;;;;;5007160;28;20038;-71
2022/04/15 07:38:59;;;;;;;16.25;4.80;;;;;;;;;;4991594;28;20391;-72
2022/04/15 07:41:25;;;;;;;6.82;4.00;;;;;;;;;;5007530;28;20426;-73
2022/04/15 07:43:51;;;;;;;7.60;4.63;;;;;;;;;;5011054;28;20294;-73
2022/04/15 07:46:17;;;;;;;5.20;4.60;;;;;;;;;;5007612;28;20060;-72
2022/04/15 07:48:43;;;;;;;6.97;4.07;;;;;;;;;;4989902;28;20407;-73
2022/04/15 07:51:11;;;;;;;10.50;4.10;;;;;;;;;;4989972;28;20126;-72
2022/04/15 07:53:37;;;;;;;12.93;3.75;;;;;;;;;;5007224;28;20690;-72
2022/04/15 07:56:06;;;;;;;8.20;3.30;;;;;;;;;;5005552;28;20129;-72
2022/04/15 07:58:32;;;;;;;5.35;3.35;;;;;;;;;;5003693;28;20128;-72
2022/04/15 08:01:00;;;;;;;6.45;3.70;;;;;;;;;;5008079;28;20042;-72
2022/04/15 08:03:27;;;;;;;10.90;3.40;;;;;;;;;;5005284;28;20132;-70
2022/04/15 08:05:53;;;;;;;8.25;3.30;;;;;;;;;;5023036;28;20037;-72
2022/04/15 08:08:21;;;;;;;11.63;3.50;;;;;;;;;;4990236;28;20049;-72
2022/04/15 08:10:48;;;;;;;7.93;2.95;;;;;;;;;;4990656;28;20045;-72
2022/04/15 08:13:14;;;;;;;12.20;3.00;;;;;;;;;;5008226;28;20050;-71
2022/04/15 08:15:40;;;;;;;4.13;2.72;;;;;;;;;;5007990;28;20145;-71
2022/04/15 08:18:07;;;;;;;8.73;3.47;;;;;;;;;;5003050;28;20096;-71
2022/04/15 08:20:33;;;;;;;9.65;2.90;;;;;;;;;;5004146;28;20157;-71
2022/04/15 08:22:59;;;;;;;7.28;2.33;;;;;;;;;;4991797;28;20581;-70
2022/04/15 08:25:25;;;;;;;10.63;3.20;;;;;;;;;;5006139;28;20513;-71
2022/04/15 08:27:51;;;;;;;5.68;2.70;;;;;;;;;;4999805;28;20089;-72
2022/04/15 08:30:16;;;;;;;2.58;2.38;;;;;;;;;;5021935;28;20041;-71
2022/04/15 08:32:42;;;;;;;6.45;2.80;;;;;;;;;;5014416;28;20061;-72
2022/04/15 08:35:11;;;;;;;7.43;2.70;;;;;;;;;;5007621;28;20145;-72
2022/04/15 08:37:38;;;;;;;3.63;2.58;;;;;;;;;;4990407;28;20527;-72
2022/04/15 08:40:04;;;;;;;2.40;2.20;;;;;;;;;;5008115;28;20045;-72
2022/04/15 08:42:31;;;;;;;5.75;2.90;;;;;;;;;;4990595;28;20046;-72
2022/04/15 08:44:56;;;;;;;6.95;2.70;;;;;;;;;;5008815;28;20073;-72
2022/04/15 08:47:24;;;;;;;7.80;2.80;;;;;;;;;;5007933;28;20513;-73
2022/04/15 08:49:50;;;;;;;2.78;2.38;;;;;;;;;;5009150;28;20049;-73
2022/04/15 08:52:16;;;;;;;8.60;3.42;;;;;;;;;;5009015;28;20041;-72
2022/04/15 08:54:43;;;;;;;4.97;3.47;;;;;;;;;;5009207;28;20037;-72
2022/04/15 08:57:09;;;;;;;3.42;2.88;;;;;;;;;;5010572;28;20060;-72
2022/04/15 08:59:34;;;;;;;6.60;2.60;;;;;;;;;;5012199;28;20050;-73
2022/04/15 09:02:01;;;;;;;5.15;2.80;;;;;;;;;;5030400;28;20056;-73
2022/04/15 09:04:26;;;;;;;2.60;2.40;;;;;;;;;;5031962;28;20515;-72
2022/04/15 09:06:56;;;;;;;5.47;2.40;;;;;;;;;;4994885;28;20206;-72
2022/04/15 09:09:29;;;;;;;4.72;2.30;;;;;;;;;;5011531;28;20060;-72
2022/04/15 09:12:05;;;;;;;6.97;3.15;;;;;;;;;;5012100;28;20072;-72
2022/04/15 09:14:45;;;;;;;4.28;2.03;;;;;;;;;;5012228;28;20042;-72
2022/04/15 09:17:41;;;;;;;;;;;;;;;;;;;;;
2022/04/15 16:12:22;;;;;;;10.00;5.90;;;;;;;;;;4309892;26;20045;-80
2022/04/15 16:14:48;;;;;;;9.50;5.65;;;;;;;;;;5006085;28;20069;-81
2022/04/15 16:17:14;;;;;;;13.45;6.00;;;;;;;;;;5015142;28;20112;-80
2022/04/15 16:19:40;;;;;;;11.05;6.63;;;;;;;;;;5039705;28;20040;-80
2022/04/15 16:22:07;;;;;;;7.05;5.03;;;;;;;;;;4999636;28;20099;-83
2022/04/15 16:24:33;;;;;;;9.95;4.70;;;;;;;;;;5020579;28;20045;-83
2022/04/15 16:26:59;;;;;;;12.85;5.32;;;;;;;;;;5048686;28;20084;-83
2022/04/15 16:29:26;;;;;;;12.60;6.35;;;;;;;;;;5031965;28;20049;-82
2022/04/15 16:31:51;;;;;;;8.13;5.28;;;;;;;;;;5049030;28;20056;-84
2022/04/15 16:34:18;;;;;;;13.45;5.43;;;;;;;;;;5046643;28;20049;-82
2022/04/15 16:36:44;;;;;;;9.43;4.90;;;;;;;;;;5050080;28;20394;-85
2022/04/15 16:39:10;;;;;;;8.98;5.30;;;;;;;;;;5035821;28;20057;-75
2022/04/15 16:41:36;;;;;;;14.98;5.53;;;;;;;;;;5032010;28;20896;-74
2022/04/15 16:44:07;;;;;;;5.20;4.63;;;;;;;;;;5030860;28;20037;-74
2022/04/15 16:46:33;;;;;;;6.82;4.55;;;;;;;;;;5024218;28;20533;-79
2022/04/15 16:49:01;;;;;;;6.65;4.60;;;;;;;;;;5030021;28;20038;-85
2022/04/15 16:51:27;;;;;;;6.88;5.78;;;;;;;;;;5030269;28;20042;-84
2022/04/15 16:53:54;;;;;;;14.98;7.05;;;;;;;;;;5030834;28;20045;-84
2022/04/15 16:59:04;;;;;;;6.20;4.22;;;;;;;;;;5001345;28;20046;-82
2022/04/15 17:01:31;;;;;;;8.82;5.00;;;;;;;;;;5022640;28;20049;-84
2022/04/15 17:03:58;;;;;;;5.55;4.95;;;;;;;;;;5030949;28;20050;-81
2022/04/15 17:06:24;;;;;;;7.80;5.28;;;;;;;;;;4979716;28;20157;-84
2022/04/15 17:08:51;;;;;;;7.10;6.00;;;;;;;;;;5012652;28;20050;-85
2022/04/15 17:11:17;;;;;;;7.85;5.53;;;;;;;;;;5014309;28;20057;-83
2022/04/15 17:13:43;;;;;;;11.38;6.93;;;;;;;;;;5029763;28;20128;-83
2022/04/15 17:16:09;;;;;;;10.80;5.75;;;;;;;;;;5030953;28;20041;-83
2022/04/15 17:18:37;;;;;;;10.60;6.00;;;;;;;;;;5033784;28;20038;-84
2022/04/15 17:21:06;;;;;;;6.28;5.68;;;;;;;;;;5015068;28;20049;-72
2022/04/15 17:23:35;;;;;;;7.82;5.40;;;;;;;;;;5011670;28;20048;-73
2022/04/15 17:26:05;;;;;;;16.50;5.80;;;;;;;;;;5008564;28;20050;-73
2022/04/15 17:28:32;;;;;;;7.47;6.15;;;;;;;;;;5011807;28;20075;-72
2022/04/15 17:30:58;;;;;;;11.18;6.25;;;;;;;;;;5011764;28;20038;-73
2022/04/15 17:33:25;;;;;;;8.50;5.28;;;;;;;;;;5012003;28;20046;-73
2022/04/15 17:35:51;;;;;;;11.50;5.47;;;;;;;;;;4994790;28;20045;-73
2022/04/15 17:38:17;;;;;;;6.25;5.07;;;;;;;;;;5011566;28;20044;-73
2022/04/15 17:40:52;;;;;;;7.47;4.78;;;;;;;;;;5010405;28;20120;-72
2022/04/15 17:43:22;;;;;;;6.93;5.80;;;;;;;;;;5010258;28;20518;-73
2022/04/15 17:45:48;;;;;;;8.83;6.60;;;;;;;;;;5010185;28;20046;-73
2022/04/15 17:48:15;;;;;;;10.93;6.53;;;;;;;;;;5010192;28;20094;-73
2022/04/15 17:50:40;;;;;;;9.15;6.55;;;;;;;;;;5011126;28;20042;-73
2022/04/15 17:53:07;;;;;;;9.02;6.75;;;;;;;;;;5007810;28;20057;-73
2022/04/15 17:55:33;;;;;;;8.50;6.68;;;;;;;;;;5006870;28;20038;-74
2022/04/15 17:58:01;;;;;;;9.27;6.60;;;;;;;;;;5007726;28;20506;-73
2022/04/15 18:00:27;;;;;;;11.75;6.40;;;;;;;;;;4993638;28;20037;-73
2022/04/15 18:02:54;;;;;;;9.38;6.63;;;;;;;;;;5010355;28;20442;-73
2022/04/15 18:05:20;;;;;;;12.05;7.75;;;;;;;;;;4993234;28;20382;-73
2022/04/15 18:07:46;;;;;;;10.63;8.18;;;;;;;;;;5010474;28;20054;-72
2022/04/15 18:10:12;;;;;;;15.00;10.80;;;;;;;;;;4990640;28;20034;-72
2022/04/15 18:12:38;;;;;;;15.75;12.07;;;;;;;;;;5009113;28;20104;-72
2022/04/15 18:15:04;;;;;;;16.55;11.23;;;;;;;;;;5010243;28;20536;-72
2022/04/15 18:17:31;;;;;;;21.80;13.18;;;;;;;;;;4995755;28;20033;-73
2022/04/15 18:19:58;;;;;;;13.88;9.85;;;;;;;;;;5009269;28;20113;-73
2022/04/15 18:22:24;;;;;;;18.05;12.63;;;;;;;;;;5009625;28;20038;-73
2022/04/15 18:24:51;;;;;;;18.17;11.73;;;;;;;;;;5010251;28;20065;-73
2022/04/15 18:27:20;;;;;;;14.60;10.10;;;;;;;;;;5010243;28;20053;-72
2022/04/15 18:29:47;;;;;;;15.32;8.57;;;;;;;;;;4993918;28;20041;-73
2022/04/15 18:32:19;;;;;;;11.98;9.10;;;;;;;;;;5002333;28;20522;-72
2022/04/15 18:34:49;;;;;;;12.88;8.05;;;;;;;;;;5009358;28;20481;-72
2022/04/15 18:37:18;;;;;;;12.65;8.30;;;;;;;;;;5011078;28;20052;-73
2022/04/15 18:39:45;;;;;;;8.00;7.20;;;;;;;;;;5015771;28;20137;-72
2022/04/15 18:42:15;;;;;;;6.63;6.03;;;;;;;;;;5018069;28;20037;-72
2022/04/15 18:44:41;;;;;;;7.47;6.72;;;;;;;;;;5014497;28;20045;-72
2022/04/15 18:47:08;;;;;;;7.82;6.47;;;;;;;;;;5008936;28;20046;-73
2022/04/15 18:52:36;;;;;;;10.90;7.75;;;;;;;;;;5010000;28;20056;-73
2022/04/15 18:55:04;;;;;;;8.32;7.20;;;;;;;;;;5010302;28;20042;-73
2022/04/15 18:57:31;;;;;;;6.93;4.85;;;;;;;;;;5008884;28;20046;-72
2022/04/15 18:59:58;;;;;;;11.70;8.13;;;;;;;;;;5017404;28;20727;-72
2022/04/15 19:02:25;;;;;;;9.98;7.95;;;;;;;;;;5008844;28;20046;-72
2022/04/15 19:04:51;;;;;;;9.35;8.35;;;;;;;;;;5009681;28;20132;-72
2022/04/15 19:07:19;;;;;;;13.75;9.18;;;;;;;;;;4991741;28;20108;-71
2022/04/15 19:09:46;;;;;;;10.98;8.93;;;;;;;;;;5009801;28;20069;-72
2022/04/15 19:12:13;;;;;;;11.70;9.32;;;;;;;;;;5008504;28;20093;-72
2022/04/15 19:14:39;;;;;;;14.13;9.45;;;;;;;;;;5009568;28;20096;-72
2022/04/15 19:17:05;;;;;;;10.85;8.50;;;;;;;;;;4992021;28;20421;-72
2022/04/15 19:19:33;;;;;;;10.23;8.55;;;;;;;;;;5009872;28;20045;-72
2022/04/15 19:22:01;;;;;;;8.75;7.80;;;;;;;;;;5009414;28;20474;-71
2022/04/15 19:24:28;;;;;;;11.60;8.23;;;;;;;;;;5008782;28;20073;-71
2022/04/15 19:26:54;;;;;;;9.90;7.82;;;;;;;;;;5004602;28;20460;-71
2022/04/15 19:29:20;;;;;;;12.75;10.48;;;;;;;;;;5022570;28;20506;-72
2022/04/15 19:31:46;;;;;;;12.80;9.82;;;;;;;;;;5003015;28;20125;-72
2022/04/15 19:34:14;;;;;;;13.23;8.07;;;;;;;;;;5001848;28;20893;-73
2022/04/15 19:36:42;;;;;;;11.93;8.55;;;;;;;;;;5008275;28;20136;-73
2022/04/15 19:39:09;;;;;;;11.40;8.57;;;;;;;;;;5009170;28;20526;-73
2022/04/15 19:41:35;;;;;;;13.27;10.20;;;;;;;;;;4987944;28;20085;-73
2022/04/15 19:44:01;;;;;;;16.73;11.13;;;;;;;;;;4983065;28;20045;-72
2022/04/15 19:46:28;;;;;;;11.70;10.00;;;;;;;;;;5007838;28;20049;-71
2022/04/15 19:48:54;;;;;;;14.32;11.60;;;;;;;;;;4990596;28;20048;-72
2022/04/15 19:51:21;;;;;;;12.60;11.18;;;;;;;;;;5008245;28;20535;-70
2022/04/15 19:53:47;;;;;;;15.63;10.05;;;;;;;;;;5007992;28;20038;-72
2022/04/15 20:01:42;;;;;;;13.77;11.43;;;;;;;;;;5002566;28;20050;-71
2022/04/15 20:04:08;;;;;;;18.95;12.65;;;;;;;;;;5007819;28;20129;-71
2022/04/15 20:06:34;;;;;;;14.55;10.60;;;;;;;;;;5005937;28;20410;-72
2022/04/15 20:09:01;;;;;;;14.07;9.93;;;;;;;;;;5009366;28;20042;-72
2022/04/15 20:11:27;;;;;;;14.63;10.68;;;;;;;;;;5009083;28;20061;-72
2022/04/15 20:13:53;;;;;;;13.30;10.00;;;;;;;;;;5008903;28;20038;-72
2022/04/15 20:16:19;;;;;;;16.05;10.23;;;;;;;;;;5006409;28;20037;-72
2022/04/15 20:18:45;;;;;;;18.65;11.77;;;;;;;;;;5008450;28;20132;-71
2022/04/15 20:21:12;;;;;;;21.02;12.07;;;;;;;;;;5007358;28;20518;-72
2022/04/15 20:23:38;;;;;;;12.02;10.82;;;;;;;;;;5005332;28;20045;-74
2022/04/15 20:26:05;;;;;;;11.80;10.43;;;;;;;;;;5002345;28;20042;-73
2022/04/15 20:28:36;;;;;;;11.68;10.30;;;;;;;;;;5009977;28;20145;-73
2022/04/15 20:31:03;;;;;;;14.55;10.13;;;;;;;;;;5008244;28;20074;-73
2022/04/15 20:33:28;;;;;;;13.27;8.13;;;;;;;;;;4990977;28;20084;-73
2022/04/15 20:35:54;;;;;;;14.02;10.90;;;;;;;;;;5008792;28;20081;-73
2022/04/15 20:38:20;;;;;;;14.93;11.77;;;;;;;;;;5008547;28;20096;-73
2022/04/15 20:40:46;;;;;;;17.35;12.07;;;;;;;;;;5008790;28;20042;-72
2022/04/15 20:43:15;;;;;;;14.20;12.02;;;;;;;;;;5008823;28;20128;-72
2022/04/15 20:45:44;;;;;;;18.67;13.27;;;;;;;;;;5007509;28;20580;-73
2022/04/15 20:50:57;;;;;;;15.38;10.35;;;;;;;;;;5008702;28;20132;-71
2022/04/15 20:53:24;;;;;;;23.08;14.18;;;;;;;;;;5011568;28;20061;-72
2022/04/15 20:55:49;;;;;;;27.45;13.88;;;;;;;;;;5012710;28;20042;-73
2022/04/15 20:58:16;;;;;;;22.05;15.75;;;;;;;;;;4996781;28;20061;-73
2022/04/15 21:00:43;;;;;;;19.77;16.90;;;;;;;;;;4996670;28;20034;-73
2022/04/15 21:03:10;;;;;;;21.33;16.70;;;;;;;;;;4997234;28;20046;-72
2022/04/15 21:05:35;;;;;;;20.73;15.57;;;;;;;;;;5012129;28;20038;-72
2022/04/15 21:08:12;;;;;;;23.80;17.42;;;;;;;;;;5011792;28;20096;-72
2022/04/15 21:10:40;;;;;;;20.33;16.77;;;;;;;;;;4993620;28;20425;-71
2022/04/15 21:13:06;;;;;;;24.38;18.45;;;;;;;;;;5011032;28;20060;-73
2022/04/15 21:15:31;;;;;;;23.17;18.58;;;;;;;;;;5010898;28;20038;-72
2022/04/15 21:17:58;;;;;;;35.75;23.80;;;;;;;;;;5010550;28;20073;-71
2022/04/15 21:20:24;;;;;;;34.63;26.23;;;;;;;;;;5011845;28;20029;-70
2022/04/15 21:22:50;;;;;;;38.65;27.42;;;;;;;;;;5011493;28;20046;-71
2022/04/15 21:25:16;;;;;;;34.20;25.42;;;;;;;;;;5011899;28;20580;-71
2022/04/15 21:27:42;;;;;;;29.98;23.08;;;;;;;;;;5011714;28;20054;-72
2022/04/15 21:30:08;;;;;;;27.05;22.25;;;;;;;;;;5011796;28;20045;-71
2022/04/15 21:32:34;;;;;;;32.30;22.77;;;;;;;;;;5011364;28;20053;-70
2022/04/15 21:34:59;;;;;;;26.20;22.30;;;;;;;;;;5011459;28;20038;-71
2022/04/15 21:37:25;;;;;;;23.70;21.20;;;;;;;;;;5016146;28;20048;-72